sensor_id;sensor_type;location;lat;lon;timestamp;P1;durP1;ratioP1;P2;durP2;ratioP2
39848;SDS011;25518;47.878;15.914;2023-07-09T00:01:14;6.32;;;3.55;;
39848;SDS011;25518;47.878;15.914;2023-07-09T00:04:08;5.30;;;3.20;;
39848;SDS011;25518;47.878;15.914;2023-07-09T00:07:00;8.10;;;3.40;;
39848;SDS011;25518;47.878;15.914;2023-07-09T00:09:53;6.00;;;4.03;;
39848;SDS011;25518;47.878;15.914;2023-07-09T00:12:43;6.47;;;3.85;;
39848;SDS011;25518;47.878;15.914;2023-07-09T00:15:33;6.88;;;3.65;;
39848;SDS011;25518;47.878;15.914;2023-07-09T00:18:23;5.90;;;3.63;;
39848;SDS011;25518;47.878;15.914;2023-07-09T00:21:12;9.07;;;3.92;;
39848;SDS011;25518;47.878;15.914;2023-07-09T00:24:02;8.73;;;3.97;;
39848;SDS011;25518;47.878;15.914;2023-07-09T00:26:53;6.07;;;3.60;;
39848;SDS011;25518;47.878;15.914;2023-07-09T00:29:43;7.10;;;4.00;;
39848;SDS011;25518;47.878;15.914;2023-07-09T00:32:33;6.03;;;3.53;;
39848;SDS011;25518;47.878;15.914;2023-07-09T00:35:31;7.97;;;4.07;;
39848;SDS011;25518;47.878;15.914;2023-07-09T00:38:21;7.93;;;3.87;;
39848;SDS011;25518;47.878;15.914;2023-07-09T00:41:13;5.35;;;3.72;;
39848;SDS011;25518;47.878;15.914;2023-07-09T00:47:13;5.50;;;3.40;;
39848;SDS011;25518;47.878;15.914;2023-07-09T00:50:10;6.60;;;3.83;;
39848;SDS011;25518;47.878;15.914;2023-07-09T00:53:11;6.90;;;4.00;;
39848;SDS011;25518;47.878;15.914;2023-07-09T00:56:08;7.45;;;3.55;;
39848;SDS011;25518;47.878;15.914;2023-07-09T00:59:04;5.50;;;3.57;;
39848;SDS011;25518;47.878;15.914;2023-07-09T01:01:57;6.93;;;3.50;;
39848;SDS011;25518;47.878;15.914;2023-07-09T01:04:50;6.37;;;3.40;;
39848;SDS011;25518;47.878;15.914;2023-07-09T01:07:43;5.13;;;3.33;;
39848;SDS011;25518;47.878;15.914;2023-07-09T01:10:34;6.43;;;3.50;;
39848;SDS011;25518;47.878;15.914;2023-07-09T01:13:25;6.70;;;4.13;;
39848;SDS011;25518;47.878;15.914;2023-07-09T01:16:17;6.57;;;3.97;;
39848;SDS011;25518;47.878;15.914;2023-07-09T01:19:10;7.30;;;4.13;;
39848;SDS011;25518;47.878;15.914;2023-07-09T01:22:02;5.65;;;3.90;;
39848;SDS011;25518;47.878;15.914;2023-07-09T01:27:45;7.05;;;3.70;;
39848;SDS011;25518;47.878;15.914;2023-07-09T01:30:36;6.22;;;3.78;;
39848;SDS011;25518;47.878;15.914;2023-07-09T01:33:27;6.10;;;3.80;;
39848;SDS011;25518;47.878;15.914;2023-07-09T01:36:19;6.10;;;3.22;;
39848;SDS011;25518;47.878;15.914;2023-07-09T01:39:11;7.00;;;3.70;;
39848;SDS011;25518;47.878;15.914;2023-07-09T01:42:01;6.00;;;3.55;;
39848;SDS011;25518;47.878;15.914;2023-07-09T01:44:51;7.70;;;3.93;;
39848;SDS011;25518;47.878;15.914;2023-07-09T01:47:42;6.50;;;4.05;;
39848;SDS011;25518;47.878;15.914;2023-07-09T01:50:33;6.90;;;3.90;;
39848;SDS011;25518;47.878;15.914;2023-07-09T01:53:23;6.90;;;4.03;;
39848;SDS011;25518;47.878;15.914;2023-07-09T01:56:15;10.05;;;4.32;;
39848;SDS011;25518;47.878;15.914;2023-07-09T01:59:05;7.28;;;4.20;;
39848;SDS011;25518;47.878;15.914;2023-07-09T02:01:55;6.25;;;3.90;;
39848;SDS011;25518;47.878;15.914;2023-07-09T02:04:46;6.93;;;3.70;;
39848;SDS011;25518;47.878;15.914;2023-07-09T02:07:39;5.97;;;3.80;;
39848;SDS011;25518;47.878;15.914;2023-07-09T02:10:29;7.33;;;4.30;;
39848;SDS011;25518;47.878;15.914;2023-07-09T02:13:19;8.30;;;3.78;;
39848;SDS011;25518;47.878;15.914;2023-07-09T02:16:08;5.68;;;3.45;;
39848;SDS011;25518;47.878;15.914;2023-07-09T02:18:58;5.22;;;3.53;;
39848;SDS011;25518;47.878;15.914;2023-07-09T02:21:47;6.68;;;4.38;;
39848;SDS011;25518;47.878;15.914;2023-07-09T02:24:37;8.45;;;4.07;;
39848;SDS011;25518;47.878;15.914;2023-07-09T02:27:27;7.43;;;4.18;;
39848;SDS011;25518;47.878;15.914;2023-07-09T02:30:17;6.88;;;4.30;;
39848;SDS011;25518;47.878;15.914;2023-07-09T02:33:06;6.90;;;3.95;;
39848;SDS011;25518;47.878;15.914;2023-07-09T02:35:56;9.05;;;4.05;;
39848;SDS011;25518;47.878;15.914;2023-07-09T02:38:46;6.97;;;3.47;;
39848;SDS011;25518;47.878;15.914;2023-07-09T02:41:36;6.00;;;3.80;;
39848;SDS011;25518;47.878;15.914;2023-07-09T02:44:25;6.60;;;4.18;;
39848;SDS011;25518;47.878;15.914;2023-07-09T02:47:15;5.30;;;3.63;;
39848;SDS011;25518;47.878;15.914;2023-07-09T02:50:05;7.57;;;3.60;;
39848;SDS011;25518;47.878;15.914;2023-07-09T02:52:55;6.70;;;4.20;;
39848;SDS011;25518;47.878;15.914;2023-07-09T02:55:45;8.25;;;3.83;;
39848;SDS011;25518;47.878;15.914;2023-07-09T02:58:35;6.30;;;3.47;;
39848;SDS011;25518;47.878;15.914;2023-07-09T03:18:19;6.35;;;4.00;;
39848;SDS011;25518;47.878;15.914;2023-07-09T03:21:09;7.20;;;3.97;;
39848;SDS011;25518;47.878;15.914;2023-07-09T03:23:59;6.20;;;4.15;;
39848;SDS011;25518;47.878;15.914;2023-07-09T03:26:48;9.32;;;4.20;;
39848;SDS011;25518;47.878;15.914;2023-07-09T03:29:38;7.13;;;4.32;;
39848;SDS011;25518;47.878;15.914;2023-07-09T03:32:28;6.43;;;3.80;;
39848;SDS011;25518;47.878;15.914;2023-07-09T03:35:18;6.07;;;3.70;;
39848;SDS011;25518;47.878;15.914;2023-07-09T03:38:08;7.68;;;4.43;;
39848;SDS011;25518;47.878;15.914;2023-07-09T03:41:00;7.90;;;4.32;;
39848;SDS011;25518;47.878;15.914;2023-07-09T03:43:49;7.45;;;4.15;;
39848;SDS011;25518;47.878;15.914;2023-07-09T03:46:41;6.82;;;4.40;;
39848;SDS011;25518;47.878;15.914;2023-07-09T03:49:31;6.13;;;4.03;;
39848;SDS011;25518;47.878;15.914;2023-07-09T03:52:22;7.90;;;4.60;;
39848;SDS011;25518;47.878;15.914;2023-07-09T03:55:12;6.53;;;4.00;;
39848;SDS011;25518;47.878;15.914;2023-07-09T03:58:01;6.03;;;3.72;;
39848;SDS011;25518;47.878;15.914;2023-07-09T04:00:51;6.13;;;3.40;;
39848;SDS011;25518;47.878;15.914;2023-07-09T04:03:43;5.80;;;3.88;;
39848;SDS011;25518;47.878;15.914;2023-07-09T04:06:33;8.57;;;4.22;;
39848;SDS011;25518;47.878;15.914;2023-07-09T04:09:23;6.70;;;4.17;;
39848;SDS011;25518;47.878;15.914;2023-07-09T04:12:12;8.13;;;4.10;;
39848;SDS011;25518;47.878;15.914;2023-07-09T04:15:02;7.53;;;4.18;;
39848;SDS011;25518;47.878;15.914;2023-07-09T04:17:54;6.63;;;3.92;;
39848;SDS011;25518;47.878;15.914;2023-07-09T04:20:47;6.87;;;4.07;;
39848;SDS011;25518;47.878;15.914;2023-07-09T04:23:38;6.50;;;3.70;;
39848;SDS011;25518;47.878;15.914;2023-07-09T04:26:28;8.45;;;4.18;;
39848;SDS011;25518;47.878;15.914;2023-07-09T04:29:17;5.78;;;3.80;;
39848;SDS011;25518;47.878;15.914;2023-07-09T04:32:08;5.75;;;4.00;;
39848;SDS011;25518;47.878;15.914;2023-07-09T04:35:02;6.38;;;4.18;;
39848;SDS011;25518;47.878;15.914;2023-07-09T04:37:55;7.25;;;3.72;;
39848;SDS011;25518;47.878;15.914;2023-07-09T04:40:46;6.63;;;3.95;;
39848;SDS011;25518;47.878;15.914;2023-07-09T04:43:35;6.45;;;3.88;;
39848;SDS011;25518;47.878;15.914;2023-07-09T04:46:25;7.90;;;3.80;;
39848;SDS011;25518;47.878;15.914;2023-07-09T04:49:14;7.45;;;4.22;;
39848;SDS011;25518;47.878;15.914;2023-07-09T04:52:04;8.02;;;4.18;;
39848;SDS011;25518;47.878;15.914;2023-07-09T04:54:55;5.95;;;4.10;;
39848;SDS011;25518;47.878;15.914;2023-07-09T04:57:45;7.43;;;4.32;;
39848;SDS011;25518;47.878;15.914;2023-07-09T05:00:35;6.63;;;3.90;;
39848;SDS011;25518;47.878;15.914;2023-07-09T05:03:25;7.20;;;4.00;;
39848;SDS011;25518;47.878;15.914;2023-07-09T05:06:15;6.35;;;4.05;;
39848;SDS011;25518;47.878;15.914;2023-07-09T05:09:05;6.32;;;3.70;;
39848;SDS011;25518;47.878;15.914;2023-07-09T05:11:55;6.32;;;3.97;;
39848;SDS011;25518;47.878;15.914;2023-07-09T05:14:45;5.72;;;3.95;;
39848;SDS011;25518;47.878;15.914;2023-07-09T05:17:34;6.82;;;4.13;;
39848;SDS011;25518;47.878;15.914;2023-07-09T05:20:24;6.73;;;3.70;;
39848;SDS011;25518;47.878;15.914;2023-07-09T05:23:14;7.25;;;3.97;;
39848;SDS011;25518;47.878;15.914;2023-07-09T05:26:03;5.60;;;3.37;;
39848;SDS011;25518;47.878;15.914;2023-07-09T05:28:53;6.45;;;4.20;;
39848;SDS011;25518;47.878;15.914;2023-07-09T05:31:45;7.00;;;4.30;;
39848;SDS011;25518;47.878;15.914;2023-07-09T05:34:35;6.63;;;3.63;;
39848;SDS011;25518;47.878;15.914;2023-07-09T05:37:25;6.53;;;4.10;;
39848;SDS011;25518;47.878;15.914;2023-07-09T05:40:14;6.97;;;4.25;;
39848;SDS011;25518;47.878;15.914;2023-07-09T05:43:04;5.93;;;3.58;;
39848;SDS011;25518;47.878;15.914;2023-07-09T05:45:54;6.72;;;4.28;;
39848;SDS011;25518;47.878;15.914;2023-07-09T05:48:43;7.57;;;4.15;;
39848;SDS011;25518;47.878;15.914;2023-07-09T05:51:33;6.22;;;4.05;;
39848;SDS011;25518;47.878;15.914;2023-07-09T05:54:23;6.57;;;4.13;;
39848;SDS011;25518;47.878;15.914;2023-07-09T05:57:13;10.75;;;4.68;;
39848;SDS011;25518;47.878;15.914;2023-07-09T06:00:02;6.57;;;4.05;;
39848;SDS011;25518;47.878;15.914;2023-07-09T06:02:52;6.17;;;3.93;;
39848;SDS011;25518;47.878;15.914;2023-07-09T06:05:42;8.60;;;4.63;;
39848;SDS011;25518;47.878;15.914;2023-07-09T06:08:32;7.05;;;3.47;;
39848;SDS011;25518;47.878;15.914;2023-07-09T06:11:22;6.57;;;3.92;;
39848;SDS011;25518;47.878;15.914;2023-07-09T06:14:12;7.43;;;4.13;;
39848;SDS011;25518;47.878;15.914;2023-07-09T06:17:01;6.97;;;4.20;;
39848;SDS011;25518;47.878;15.914;2023-07-09T06:19:51;6.88;;;4.07;;
39848;SDS011;25518;47.878;15.914;2023-07-09T06:22:41;6.30;;;4.03;;
39848;SDS011;25518;47.878;15.914;2023-07-09T06:25:30;7.47;;;4.32;;
39848;SDS011;25518;47.878;15.914;2023-07-09T06:28:21;7.68;;;4.05;;
39848;SDS011;25518;47.878;15.914;2023-07-09T06:31:12;7.47;;;4.20;;
39848;SDS011;25518;47.878;15.914;2023-07-09T06:34:02;6.57;;;4.15;;
39848;SDS011;25518;47.878;15.914;2023-07-09T06:36:52;5.50;;;3.58;;
39848;SDS011;25518;47.878;15.914;2023-07-09T06:39:42;6.97;;;4.47;;
39848;SDS011;25518;47.878;15.914;2023-07-09T06:42:31;6.88;;;4.38;;
39848;SDS011;25518;47.878;15.914;2023-07-09T06:45:21;6.78;;;4.15;;
39848;SDS011;25518;47.878;15.914;2023-07-09T06:48:11;7.03;;;3.97;;
39848;SDS011;25518;47.878;15.914;2023-07-09T06:51:00;6.95;;;3.90;;
39848;SDS011;25518;47.878;15.914;2023-07-09T06:53:50;6.22;;;3.97;;
39848;SDS011;25518;47.878;15.914;2023-07-09T06:56:41;6.38;;;3.75;;
39848;SDS011;25518;47.878;15.914;2023-07-09T06:59:31;5.78;;;3.80;;
39848;SDS011;25518;47.878;15.914;2023-07-09T07:02:20;6.05;;;3.90;;
39848;SDS011;25518;47.878;15.914;2023-07-09T07:05:10;7.80;;;4.18;;
39848;SDS011;25518;47.878;15.914;2023-07-09T07:08:00;7.47;;;4.25;;
39848;SDS011;25518;47.878;15.914;2023-07-09T07:10:56;5.93;;;3.40;;
39848;SDS011;25518;47.878;15.914;2023-07-09T07:13:51;7.57;;;3.73;;
39848;SDS011;25518;47.878;15.914;2023-07-09T07:16:41;7.23;;;3.90;;
39848;SDS011;25518;47.878;15.914;2023-07-09T07:19:31;8.83;;;3.90;;
39848;SDS011;25518;47.878;15.914;2023-07-09T07:22:20;6.13;;;3.53;;
39848;SDS011;25518;47.878;15.914;2023-07-09T07:25:10;7.13;;;3.63;;
39848;SDS011;25518;47.878;15.914;2023-07-09T07:28:01;5.88;;;3.20;;
39848;SDS011;25518;47.878;15.914;2023-07-09T07:31:07;7.13;;;3.80;;
39848;SDS011;25518;47.878;15.914;2023-07-09T07:33:58;9.15;;;3.97;;
39848;SDS011;25518;47.878;15.914;2023-07-09T07:36:49;6.93;;;3.42;;
39848;SDS011;25518;47.878;15.914;2023-07-09T07:39:39;6.60;;;3.67;;
39848;SDS011;25518;47.878;15.914;2023-07-09T07:42:29;6.72;;;3.47;;
39848;SDS011;25518;47.878;15.914;2023-07-09T07:45:20;6.13;;;3.15;;
39848;SDS011;25518;47.878;15.914;2023-07-09T07:48:10;8.60;;;3.50;;
39848;SDS011;25518;47.878;15.914;2023-07-09T07:51:00;6.20;;;3.30;;
39848;SDS011;25518;47.878;15.914;2023-07-09T07:53:52;6.05;;;3.28;;
39848;SDS011;25518;47.878;15.914;2023-07-09T07:56:41;5.78;;;3.25;;
39848;SDS011;25518;47.878;15.914;2023-07-09T07:59:31;5.93;;;3.33;;
39848;SDS011;25518;47.878;15.914;2023-07-09T08:02:23;6.47;;;3.17;;
39848;SDS011;25518;47.878;15.914;2023-07-09T08:05:13;8.02;;;3.00;;
39848;SDS011;25518;47.878;15.914;2023-07-09T08:08:03;6.97;;;3.20;;
39848;SDS011;25518;47.878;15.914;2023-07-09T08:10:59;7.15;;;3.28;;
39848;SDS011;25518;47.878;15.914;2023-07-09T08:13:53;5.65;;;3.45;;
39848;SDS011;25518;47.878;15.914;2023-07-09T08:16:43;6.45;;;3.03;;
39848;SDS011;25518;47.878;15.914;2023-07-09T08:19:43;4.97;;;3.00;;
39848;SDS011;25518;47.878;15.914;2023-07-09T08:22:43;4.65;;;2.95;;
39848;SDS011;25518;47.878;15.914;2023-07-09T08:25:32;5.45;;;3.08;;
39848;SDS011;25518;47.878;15.914;2023-07-09T08:28:22;7.05;;;3.45;;
39848;SDS011;25518;47.878;15.914;2023-07-09T08:31:12;4.68;;;2.75;;
39848;SDS011;25518;47.878;15.914;2023-07-09T08:34:02;4.00;;;2.60;;
39848;SDS011;25518;47.878;15.914;2023-07-09T08:36:53;5.03;;;2.92;;
39848;SDS011;25518;47.878;15.914;2023-07-09T08:39:43;7.20;;;2.75;;
39848;SDS011;25518;47.878;15.914;2023-07-09T08:42:35;4.63;;;2.60;;
39848;SDS011;25518;47.878;15.914;2023-07-09T08:48:33;5.40;;;2.85;;
39848;SDS011;25518;47.878;15.914;2023-07-09T08:54:26;5.43;;;3.03;;
39848;SDS011;25518;47.878;15.914;2023-07-09T08:57:21;5.38;;;2.78;;
39848;SDS011;25518;47.878;15.914;2023-07-09T09:00:16;5.97;;;3.15;;
39848;SDS011;25518;47.878;15.914;2023-07-09T09:03:26;4.80;;;3.00;;
39848;SDS011;25518;47.878;15.914;2023-07-09T09:06:20;4.32;;;2.88;;
39848;SDS011;25518;47.878;15.914;2023-07-09T09:15:19;5.65;;;2.90;;
39848;SDS011;25518;47.878;15.914;2023-07-09T09:18:16;5.28;;;2.90;;
39848;SDS011;25518;47.878;15.914;2023-07-09T09:21:39;7.10;;;3.03;;
39848;SDS011;25518;47.878;15.914;2023-07-09T09:24:21;5.87;;;3.07;;
39848;SDS011;25518;47.878;15.914;2023-07-09T09:27:14;5.38;;;3.10;;
39848;SDS011;25518;47.878;15.914;2023-07-09T09:30:04;5.07;;;2.58;;
39848;SDS011;25518;47.878;15.914;2023-07-09T09:33:07;4.70;;;2.60;;
39848;SDS011;25518;47.878;15.914;2023-07-09T09:36:02;4.05;;;2.67;;
39848;SDS011;25518;47.878;15.914;2023-07-09T09:38:53;4.80;;;3.03;;
39848;SDS011;25518;47.878;15.914;2023-07-09T09:41:43;5.22;;;2.97;;
39848;SDS011;25518;47.878;15.914;2023-07-09T09:44:34;5.03;;;2.95;;
39848;SDS011;25518;47.878;15.914;2023-07-09T09:47:25;5.07;;;2.95;;
39848;SDS011;25518;47.878;15.914;2023-07-09T09:50:18;5.13;;;3.00;;
39848;SDS011;25518;47.878;15.914;2023-07-09T09:53:11;4.78;;;2.72;;
39848;SDS011;25518;47.878;15.914;2023-07-09T09:56:14;5.32;;;2.90;;
39848;SDS011;25518;47.878;15.914;2023-07-09T09:59:13;7.47;;;2.65;;
39848;SDS011;25518;47.878;15.914;2023-07-09T10:02:16;5.93;;;2.78;;
39848;SDS011;25518;47.878;15.914;2023-07-09T10:05:14;4.20;;;2.72;;
39848;SDS011;25518;47.878;15.914;2023-07-09T10:08:07;4.53;;;2.63;;
39848;SDS011;25518;47.878;15.914;2023-07-09T10:11:05;5.70;;;2.80;;
39848;SDS011;25518;47.878;15.914;2023-07-09T10:14:09;5.18;;;2.70;;
39848;SDS011;25518;47.878;15.914;2023-07-09T10:17:11;5.38;;;2.63;;
39848;SDS011;25518;47.878;15.914;2023-07-09T10:23:30;3.78;;;2.40;;
39848;SDS011;25518;47.878;15.914;2023-07-09T10:26:28;4.63;;;2.90;;
39848;SDS011;25518;47.878;15.914;2023-07-09T10:29:59;4.20;;;2.70;;
39848;SDS011;25518;47.878;15.914;2023-07-09T10:33:11;4.57;;;2.72;;
39848;SDS011;25518;47.878;15.914;2023-07-09T10:39:16;5.50;;;2.65;;
39848;SDS011;25518;47.878;15.914;2023-07-09T10:42:15;4.47;;;2.63;;
39848;SDS011;25518;47.878;15.914;2023-07-09T10:48:37;5.93;;;2.58;;
39848;SDS011;25518;47.878;15.914;2023-07-09T10:51:31;4.45;;;2.75;;
39848;SDS011;25518;47.878;15.914;2023-07-09T10:54:29;5.25;;;2.53;;
39848;SDS011;25518;47.878;15.914;2023-07-09T10:57:27;4.85;;;2.58;;
39848;SDS011;25518;47.878;15.914;2023-07-09T11:00:20;4.65;;;2.60;;
39848;SDS011;25518;47.878;15.914;2023-07-09T11:03:18;6.07;;;2.70;;
39848;SDS011;25518;47.878;15.914;2023-07-09T11:06:14;6.32;;;2.70;;
39848;SDS011;25518;47.878;15.914;2023-07-09T11:09:17;4.55;;;2.78;;
39848;SDS011;25518;47.878;15.914;2023-07-09T11:12:15;5.60;;;2.80;;
39848;SDS011;25518;47.878;15.914;2023-07-09T11:15:15;5.38;;;2.80;;
39848;SDS011;25518;47.878;15.914;2023-07-09T11:18:24;4.72;;;2.85;;
39848;SDS011;25518;47.878;15.914;2023-07-09T11:21:16;4.35;;;2.70;;
39848;SDS011;25518;47.878;15.914;2023-07-09T11:24:24;4.07;;;2.58;;
39848;SDS011;25518;47.878;15.914;2023-07-09T11:27:24;5.13;;;2.72;;
39848;SDS011;25518;47.878;15.914;2023-07-09T11:30:18;4.45;;;2.78;;
39848;SDS011;25518;47.878;15.914;2023-07-09T11:33:45;5.97;;;2.80;;
39848;SDS011;25518;47.878;15.914;2023-07-09T11:36:26;4.22;;;2.53;;
39848;SDS011;25518;47.878;15.914;2023-07-09T11:39:20;6.90;;;2.58;;
39848;SDS011;25518;47.878;15.914;2023-07-09T11:42:56;4.28;;;2.38;;
39848;SDS011;25518;47.878;15.914;2023-07-09T11:45:23;5.10;;;2.80;;
39848;SDS011;25518;47.878;15.914;2023-07-09T11:51:10;4.40;;;2.22;;
39848;SDS011;25518;47.878;15.914;2023-07-09T11:54:07;5.32;;;3.00;;
39848;SDS011;25518;47.878;15.914;2023-07-09T11:57:01;4.03;;;2.60;;
39848;SDS011;25518;47.878;15.914;2023-07-09T11:59:52;6.60;;;2.72;;
39848;SDS011;25518;47.878;15.914;2023-07-09T12:02:41;5.40;;;2.50;;
39848;SDS011;25518;47.878;15.914;2023-07-09T12:05:31;4.35;;;2.50;;
39848;SDS011;25518;47.878;15.914;2023-07-09T12:08:24;4.78;;;2.35;;
39848;SDS011;25518;47.878;15.914;2023-07-09T12:11:25;4.80;;;2.63;;
39848;SDS011;25518;47.878;15.914;2023-07-09T12:14:19;5.22;;;2.42;;
39848;SDS011;25518;47.878;15.914;2023-07-09T12:17:11;4.28;;;2.38;;
39848;SDS011;25518;47.878;15.914;2023-07-09T12:20:01;3.87;;;2.50;;
39848;SDS011;25518;47.878;15.914;2023-07-09T12:22:53;4.93;;;2.55;;
39848;SDS011;25518;47.878;15.914;2023-07-09T12:25:46;4.63;;;2.67;;
39848;SDS011;25518;47.878;15.914;2023-07-09T12:28:38;5.47;;;2.83;;
39848;SDS011;25518;47.878;15.914;2023-07-09T12:31:29;4.75;;;2.72;;
39848;SDS011;25518;47.878;15.914;2023-07-09T12:34:19;4.88;;;2.83;;
39848;SDS011;25518;47.878;15.914;2023-07-09T12:37:11;4.53;;;2.63;;
39848;SDS011;25518;47.878;15.914;2023-07-09T12:40:04;4.40;;;2.60;;
39848;SDS011;25518;47.878;15.914;2023-07-09T12:43:05;5.30;;;3.10;;
39848;SDS011;25518;47.878;15.914;2023-07-09T12:45:56;5.22;;;3.03;;
39848;SDS011;25518;47.878;15.914;2023-07-09T12:48:48;4.97;;;2.53;;
39848;SDS011;25518;47.878;15.914;2023-07-09T12:51:39;6.30;;;2.83;;
39848;SDS011;25518;47.878;15.914;2023-07-09T12:54:29;5.55;;;2.83;;
39848;SDS011;25518;47.878;15.914;2023-07-09T12:57:19;4.40;;;2.60;;
39848;SDS011;25518;47.878;15.914;2023-07-09T13:00:13;4.30;;;2.70;;
39848;SDS011;25518;47.878;15.914;2023-07-09T13:03:08;6.65;;;2.33;;
39848;SDS011;25518;47.878;15.914;2023-07-09T13:06:03;5.03;;;2.47;;
39848;SDS011;25518;47.878;15.914;2023-07-09T13:08:56;5.20;;;2.65;;
39848;SDS011;25518;47.878;15.914;2023-07-09T13:11:48;5.78;;;2.70;;
39848;SDS011;25518;47.878;15.914;2023-07-09T13:14:38;4.22;;;2.30;;
39848;SDS011;25518;47.878;15.914;2023-07-09T13:17:29;4.73;;;2.70;;
39848;SDS011;25518;47.878;15.914;2023-07-09T13:20:19;3.85;;;2.40;;
39848;SDS011;25518;47.878;15.914;2023-07-09T13:23:10;4.68;;;2.78;;
39848;SDS011;25518;47.878;15.914;2023-07-09T13:26:03;4.70;;;2.50;;
39848;SDS011;25518;47.878;15.914;2023-07-09T13:28:52;5.00;;;2.70;;
39848;SDS011;25518;47.878;15.914;2023-07-09T13:31:42;5.53;;;3.20;;
39848;SDS011;25518;47.878;15.914;2023-07-09T13:34:33;4.82;;;2.60;;
39848;SDS011;25518;47.878;15.914;2023-07-09T13:37:23;5.35;;;2.65;;
39848;SDS011;25518;47.878;15.914;2023-07-09T13:40:14;4.95;;;2.55;;
39848;SDS011;25518;47.878;15.914;2023-07-09T13:43:08;4.65;;;2.38;;
39848;SDS011;25518;47.878;15.914;2023-07-09T13:46:01;5.03;;;2.50;;
39848;SDS011;25518;47.878;15.914;2023-07-09T13:48:53;4.70;;;2.65;;
39848;SDS011;25518;47.878;15.914;2023-07-09T13:51:44;6.53;;;2.70;;
39848;SDS011;25518;47.878;15.914;2023-07-09T13:54:35;4.30;;;2.90;;
39848;SDS011;25518;47.878;15.914;2023-07-09T13:57:26;4.88;;;2.60;;
39848;SDS011;25518;47.878;15.914;2023-07-09T14:00:16;4.85;;;2.53;;
39848;SDS011;25518;47.878;15.914;2023-07-09T14:03:12;5.07;;;2.90;;
39848;SDS011;25518;47.878;15.914;2023-07-09T14:06:09;5.35;;;2.70;;
39848;SDS011;25518;47.878;15.914;2023-07-09T14:09:01;5.78;;;2.83;;
39848;SDS011;25518;47.878;15.914;2023-07-09T14:11:52;4.78;;;3.17;;
39848;SDS011;25518;47.878;15.914;2023-07-09T14:14:41;5.20;;;3.20;;
39848;SDS011;25518;47.878;15.914;2023-07-09T14:17:33;4.68;;;2.75;;
39848;SDS011;25518;47.878;15.914;2023-07-09T14:20:23;7.22;;;3.55;;
39848;SDS011;25518;47.878;15.914;2023-07-09T14:23:16;4.53;;;2.90;;
39848;SDS011;25518;47.878;15.914;2023-07-09T14:26:08;5.05;;;2.95;;
39848;SDS011;25518;47.878;15.914;2023-07-09T14:28:59;4.13;;;2.58;;
39848;SDS011;25518;47.878;15.914;2023-07-09T14:31:49;5.35;;;2.88;;
39848;SDS011;25518;47.878;15.914;2023-07-09T14:34:39;5.07;;;2.80;;
39848;SDS011;25518;47.878;15.914;2023-07-09T14:37:29;4.38;;;3.08;;
39848;SDS011;25518;47.878;15.914;2023-07-09T14:40:19;6.07;;;2.80;;
39848;SDS011;25518;47.878;15.914;2023-07-09T14:43:10;4.80;;;2.80;;
39848;SDS011;25518;47.878;15.914;2023-07-09T14:46:00;3.70;;;2.58;;
39848;SDS011;25518;47.878;15.914;2023-07-09T14:48:50;5.68;;;2.88;;
39848;SDS011;25518;47.878;15.914;2023-07-09T14:51:42;5.35;;;2.50;;
39848;SDS011;25518;47.878;15.914;2023-07-09T14:54:32;4.10;;;2.55;;
39848;SDS011;25518;47.878;15.914;2023-07-09T14:57:22;7.20;;;2.92;;
39848;SDS011;25518;47.878;15.914;2023-07-09T15:00:15;6.50;;;2.88;;
39848;SDS011;25518;47.878;15.914;2023-07-09T15:03:07;5.47;;;3.03;;
39848;SDS011;25518;47.878;15.914;2023-07-09T15:06:00;5.00;;;2.65;;
39848;SDS011;25518;47.878;15.914;2023-07-09T15:08:51;4.78;;;2.58;;
39848;SDS011;25518;47.878;15.914;2023-07-09T15:11:41;5.45;;;2.88;;
39848;SDS011;25518;47.878;15.914;2023-07-09T15:14:33;5.80;;;2.70;;
39848;SDS011;25518;47.878;15.914;2023-07-09T15:17:23;4.60;;;2.88;;
39848;SDS011;25518;47.878;15.914;2023-07-09T15:20:13;7.00;;;2.97;;
39848;SDS011;25518;47.878;15.914;2023-07-09T15:23:04;5.10;;;3.15;;
39848;SDS011;25518;47.878;15.914;2023-07-09T15:25:54;5.97;;;2.72;;
39848;SDS011;25518;47.878;15.914;2023-07-09T15:28:44;4.50;;;2.58;;
39848;SDS011;25518;47.878;15.914;2023-07-09T15:31:38;5.88;;;3.03;;
39848;SDS011;25518;47.878;15.914;2023-07-09T15:34:27;5.85;;;2.83;;
39848;SDS011;25518;47.878;15.914;2023-07-09T15:37:17;4.75;;;2.90;;
39848;SDS011;25518;47.878;15.914;2023-07-09T15:40:13;4.70;;;2.67;;
39848;SDS011;25518;47.878;15.914;2023-07-09T15:43:09;4.00;;;2.60;;
39848;SDS011;25518;47.878;15.914;2023-07-09T15:45:59;4.60;;;2.50;;
39848;SDS011;25518;47.878;15.914;2023-07-09T15:48:50;4.90;;;2.80;;
39848;SDS011;25518;47.878;15.914;2023-07-09T15:51:40;4.00;;;2.50;;
39848;SDS011;25518;47.878;15.914;2023-07-09T15:54:30;6.15;;;2.97;;
39848;SDS011;25518;47.878;15.914;2023-07-09T15:57:20;4.90;;;2.50;;
39848;SDS011;25518;47.878;15.914;2023-07-09T16:00:13;5.00;;;2.77;;
39848;SDS011;25518;47.878;15.914;2023-07-09T16:03:07;5.45;;;2.72;;
39848;SDS011;25518;47.878;15.914;2023-07-09T16:05:57;4.93;;;2.83;;
39848;SDS011;25518;47.878;15.914;2023-07-09T16:08:47;4.03;;;2.50;;
39848;SDS011;25518;47.878;15.914;2023-07-09T16:11:37;5.10;;;2.90;;
39848;SDS011;25518;47.878;15.914;2023-07-09T16:14:30;6.88;;;2.97;;
39848;SDS011;25518;47.878;15.914;2023-07-09T16:17:22;4.37;;;2.80;;
39848;SDS011;25518;47.878;15.914;2023-07-09T16:20:15;4.90;;;3.03;;
39848;SDS011;25518;47.878;15.914;2023-07-09T16:23:16;6.68;;;3.10;;
39848;SDS011;25518;47.878;15.914;2023-07-09T16:26:08;5.60;;;2.90;;
39848;SDS011;25518;47.878;15.914;2023-07-09T16:28:58;4.88;;;2.70;;
39848;SDS011;25518;47.878;15.914;2023-07-09T16:31:50;4.63;;;2.80;;
39848;SDS011;25518;47.878;15.914;2023-07-09T16:34:42;5.55;;;2.80;;
39848;SDS011;25518;47.878;15.914;2023-07-09T16:37:31;4.97;;;2.90;;
39848;SDS011;25518;47.878;15.914;2023-07-09T16:40:22;5.32;;;2.95;;
39848;SDS011;25518;47.878;15.914;2023-07-09T16:43:16;5.97;;;2.70;;
39848;SDS011;25518;47.878;15.914;2023-07-09T16:46:13;4.00;;;2.38;;
39848;SDS011;25518;47.878;15.914;2023-07-09T16:49:15;5.17;;;2.70;;
39848;SDS011;25518;47.878;15.914;2023-07-09T16:55:06;4.60;;;3.07;;
39848;SDS011;25518;47.878;15.914;2023-07-09T16:57:57;6.05;;;2.95;;
39848;SDS011;25518;47.878;15.914;2023-07-09T17:00:48;4.43;;;2.88;;
39848;SDS011;25518;47.878;15.914;2023-07-09T17:03:37;5.55;;;2.90;;
39848;SDS011;25518;47.878;15.914;2023-07-09T17:06:27;3.83;;;2.70;;
39848;SDS011;25518;47.878;15.914;2023-07-09T17:09:17;5.57;;;3.33;;
39848;SDS011;25518;47.878;15.914;2023-07-09T17:12:09;6.38;;;2.60;;
39848;SDS011;25518;47.878;15.914;2023-07-09T17:15:03;4.55;;;3.00;;
39848;SDS011;25518;47.878;15.914;2023-07-09T17:18:24;6.10;;;3.15;;
39848;SDS011;25518;47.878;15.914;2023-07-09T17:21:16;5.63;;;3.00;;
39848;SDS011;25518;47.878;15.914;2023-07-09T17:24:14;6.25;;;3.30;;
39848;SDS011;25518;47.878;15.914;2023-07-09T17:27:09;6.97;;;3.50;;
39848;SDS011;25518;47.878;15.914;2023-07-09T17:30:00;6.40;;;3.22;;
39848;SDS011;25518;47.878;15.914;2023-07-09T17:32:50;6.68;;;2.80;;
39848;SDS011;25518;47.878;15.914;2023-07-09T17:35:40;6.28;;;2.80;;
39848;SDS011;25518;47.878;15.914;2023-07-09T17:38:33;4.97;;;3.17;;
39848;SDS011;25518;47.878;15.914;2023-07-09T17:41:24;5.15;;;2.78;;
39848;SDS011;25518;47.878;15.914;2023-07-09T17:44:15;5.47;;;2.92;;
39848;SDS011;25518;47.878;15.914;2023-07-09T17:47:10;6.22;;;3.00;;
39848;SDS011;25518;47.878;15.914;2023-07-09T17:50:12;4.63;;;3.20;;
39848;SDS011;25518;47.878;15.914;2023-07-09T17:53:04;5.15;;;3.22;;